sensor_id;sensor_type;location;lat;lon;timestamp;noise_LAeq;noise_LA_min;noise_LA_max;noise_LA01;noise_LA95
61095;Laerm;20450;49.074;9.158;2023-05-07T00:01:38;43.95;42.22;45.48;;
61095;Laerm;20450;49.074;9.158;2023-05-07T00:04:05;43.95;42.16;45.33;;
61095;Laerm;20450;49.074;9.158;2023-05-07T00:06:33;44.00;42.53;45.39;;
61095;Laerm;20450;49.074;9.158;2023-05-07T00:09:00;44.02;42.16;45.39;;
61095;Laerm;20450;49.074;9.158;2023-05-07T00:11:29;44.04;42.65;45.36;;
61095;Laerm;20450;49.074;9.158;2023-05-07T00:13:56;44.25;42.76;46.05;;
61095;Laerm;20450;49.074;9.158;2023-05-07T00:16:23;43.98;42.41;45.39;;
61095;Laerm;20450;49.074;9.158;2023-05-07T00:18:50;43.98;42.53;45.39;;
61095;Laerm;20450;49.074;9.158;2023-05-07T00:21:17;44.00;42.47;45.33;;
61095;Laerm;20450;49.074;9.158;2023-05-07T00:23:44;44.22;42.47;52.07;;
61095;Laerm;20450;49.074;9.158;2023-05-07T00:26:11;44.19;42.76;48.37;;
61095;Laerm;20450;49.074;9.158;2023-05-07T00:28:41;43.98;42.16;45.27;;
61095;Laerm;20450;49.074;9.158;2023-05-07T00:31:08;44.04;42.29;48.66;;
61095;Laerm;20450;49.074;9.158;2023-05-07T00:33:35;44.01;42.53;45.42;;
61095;Laerm;20450;49.074;9.158;2023-05-07T00:36:02;44.00;42.29;47.84;;
61095;Laerm;20450;49.074;9.158;2023-05-07T00:38:29;43.96;42.16;45.54;;
61095;Laerm;20450;49.074;9.158;2023-05-07T00:40:56;43.87;42.41;45.27;;
61095;Laerm;20450;49.074;9.158;2023-05-07T00:43:23;54.14;42.16;89.94;;
61095;Laerm;20450;49.074;9.158;2023-05-07T00:45:52;43.87;42.35;45.17;;
61095;Laerm;20450;49.074;9.158;2023-05-07T00:48:19;43.90;42.16;45.30;;
61095;Laerm;20450;49.074;9.158;2023-05-07T00:50:46;43.87;42.29;45.57;;
61095;Laerm;20450;49.074;9.158;2023-05-07T00:53:14;43.93;42.41;45.48;;
61095;Laerm;20450;49.074;9.158;2023-05-07T00:55:40;43.91;42.22;45.89;;
61095;Laerm;20450;49.074;9.158;2023-05-07T00:58:08;43.96;42.41;45.17;;
61095;Laerm;20450;49.074;9.158;2023-05-07T01:00:35;43.97;42.59;45.27;;
61095;Laerm;20450;49.074;9.158;2023-05-07T01:03:05;44.40;42.22;50.95;;
61095;Laerm;20450;49.074;9.158;2023-05-07T01:05:32;43.91;42.35;45.60;;
61095;Laerm;20450;49.074;9.158;2023-05-07T01:08:02;43.90;42.22;45.48;;
61095;Laerm;20450;49.074;9.158;2023-05-07T01:10:30;43.91;42.35;47.83;;
61095;Laerm;20450;49.074;9.158;2023-05-07T01:12:59;43.90;42.41;48.45;;
61095;Laerm;20450;49.074;9.158;2023-05-07T01:15:26;43.92;42.35;46.69;;
61095;Laerm;20450;49.074;9.158;2023-05-07T01:17:53;43.97;42.53;45.42;;
61095;Laerm;20450;49.074;9.158;2023-05-07T01:20:30;43.90;42.41;45.11;;
61095;Laerm;20450;49.074;9.158;2023-05-07T01:23:01;43.84;42.22;45.11;;
61095;Laerm;20450;49.074;9.158;2023-05-07T01:25:28;43.78;41.82;45.40;;
61095;Laerm;20450;49.074;9.158;2023-05-07T01:27:58;43.88;42.35;45.20;;
61095;Laerm;20450;49.074;9.158;2023-05-07T01:30:29;43.98;42.59;45.60;;
61095;Laerm;20450;49.074;9.158;2023-05-07T01:33:04;44.03;42.41;45.48;;
61095;Laerm;20450;49.074;9.158;2023-05-07T01:35:40;43.97;42.58;45.33;;
61095;Laerm;20450;49.074;9.158;2023-05-07T01:38:09;43.93;42.41;45.30;;
61095;Laerm;20450;49.074;9.158;2023-05-07T01:40:37;43.91;42.58;45.27;;
61095;Laerm;20450;49.074;9.158;2023-05-07T01:43:05;43.94;42.22;45.36;;
61095;Laerm;20450;49.074;9.158;2023-05-07T01:45:35;44.00;42.47;45.17;;
61095;Laerm;20450;49.074;9.158;2023-05-07T01:48:03;43.91;42.41;45.42;;
61095;Laerm;20450;49.074;9.158;2023-05-07T01:50:33;43.80;41.89;45.11;;
61095;Laerm;20450;49.074;9.158;2023-05-07T01:53:01;43.79;42.35;45.01;;
61095;Laerm;20450;49.074;9.158;2023-05-07T01:55:30;43.78;42.29;45.11;;
61095;Laerm;20450;49.074;9.158;2023-05-07T01:57:58;43.81;42.47;45.33;;
61095;Laerm;20450;49.074;9.158;2023-05-07T02:00:26;43.87;42.53;45.27;;
61095;Laerm;20450;49.074;9.158;2023-05-07T02:02:55;43.88;42.41;45.33;;
61095;Laerm;20450;49.074;9.158;2023-05-07T02:05:51;43.84;42.22;45.27;;
61095;Laerm;20450;49.074;9.158;2023-05-07T02:08:26;43.85;42.35;45.48;;
61095;Laerm;20450;49.074;9.158;2023-05-07T02:10:55;43.75;42.22;48.23;;
61095;Laerm;20450;49.074;9.158;2023-05-07T02:13:23;43.74;42.29;45.17;;
61095;Laerm;20450;49.074;9.158;2023-05-07T02:15:50;43.77;42.35;45.20;;
61095;Laerm;20450;49.074;9.158;2023-05-07T02:18:17;43.82;42.29;45.07;;
61095;Laerm;20450;49.074;9.158;2023-05-07T02:20:44;43.79;42.16;45.04;;
61095;Laerm;20450;49.074;9.158;2023-05-07T02:23:11;43.71;42.22;45.11;;
61095;Laerm;20450;49.074;9.158;2023-05-07T02:25:38;43.75;42.22;45.20;;
61095;Laerm;20450;49.074;9.158;2023-05-07T02:28:07;43.72;42.16;45.04;;
61095;Laerm;20450;49.074;9.158;2023-05-07T02:30:45;43.76;42.29;45.01;;
61095;Laerm;20450;49.074;9.158;2023-05-07T02:33:12;43.85;42.29;45.42;;
61095;Laerm;20450;49.074;9.158;2023-05-07T02:35:40;43.79;42.35;45.11;;
61095;Laerm;20450;49.074;9.158;2023-05-07T02:38:08;43.74;41.82;45.54;;
61095;Laerm;20450;49.074;9.158;2023-05-07T02:40:35;43.71;41.89;45.01;;
61095;Laerm;20450;49.074;9.158;2023-05-07T02:43:02;43.79;41.81;45.17;;
61095;Laerm;20450;49.074;9.158;2023-05-07T02:45:31;43.75;42.09;45.17;;
61095;Laerm;20450;49.074;9.158;2023-05-07T02:47:59;43.85;42.29;45.86;;
61095;Laerm;20450;49.074;9.158;2023-05-07T02:50:26;43.85;42.03;45.33;;
61095;Laerm;20450;49.074;9.158;2023-05-07T02:52:54;43.85;41.53;45.57;;
61095;Laerm;20450;49.074;9.158;2023-05-07T02:55:21;43.78;42.03;45.30;;
61095;Laerm;20450;49.074;9.158;2023-05-07T02:57:48;43.78;42.29;45.07;;
61095;Laerm;20450;49.074;9.158;2023-05-07T03:00:17;43.86;41.96;45.23;;
61095;Laerm;20450;49.074;9.158;2023-05-07T03:02:57;43.85;42.16;45.57;;
61095;Laerm;20450;49.074;9.158;2023-05-07T03:05:24;43.88;42.16;46.80;;
61095;Laerm;20450;49.074;9.158;2023-05-07T03:07:55;43.91;42.03;46.38;;
61095;Laerm;20450;49.074;9.158;2023-05-07T03:10:22;43.92;42.29;46.10;;
61095;Laerm;20450;49.074;9.158;2023-05-07T03:12:49;44.01;42.59;46.10;;
61095;Laerm;20450;49.074;9.158;2023-05-07T03:15:17;43.94;42.36;45.39;;
61095;Laerm;20450;49.074;9.158;2023-05-07T03:17:44;43.88;42.03;48.12;;
61095;Laerm;20450;49.074;9.158;2023-05-07T03:20:13;44.20;42.47;54.51;;
61095;Laerm;20450;49.074;9.158;2023-05-07T03:22:41;43.99;42.22;46.50;;
61095;Laerm;20450;49.074;9.158;2023-05-07T03:25:10;44.64;42.41;59.06;;
61095;Laerm;20450;49.074;9.158;2023-05-07T03:27:37;44.71;42.29;56.49;;
61095;Laerm;20450;49.074;9.158;2023-05-07T03:30:06;43.91;42.41;45.89;;
61095;Laerm;20450;49.074;9.158;2023-05-07T03:32:34;44.30;42.09;54.02;;
61095;Laerm;20450;49.074;9.158;2023-05-07T03:35:05;44.15;42.35;51.51;;
61095;Laerm;20450;49.074;9.158;2023-05-07T03:37:35;43.71;41.96;46.89;;
61095;Laerm;20450;49.074;9.158;2023-05-07T03:40:02;43.74;42.35;50.57;;
61095;Laerm;20450;49.074;9.158;2023-05-07T03:42:33;44.27;41.96;54.88;;
61095;Laerm;20450;49.074;9.158;2023-05-07T03:45:00;43.80;41.89;53.97;;
61095;Laerm;20450;49.074;9.158;2023-05-07T03:47:29;43.66;41.89;49.50;;
61095;Laerm;20450;49.074;9.158;2023-05-07T03:49:56;43.70;40.98;52.54;;
61095;Laerm;20450;49.074;9.158;2023-05-07T03:52:24;43.82;42.22;49.65;;
61095;Laerm;20450;49.074;9.158;2023-05-07T03:54:55;43.83;42.22;50.51;;
61095;Laerm;20450;49.074;9.158;2023-05-07T03:57:22;43.93;42.16;51.62;;
61095;Laerm;20450;49.074;9.158;2023-05-07T03:59:49;43.92;41.82;51.73;;
61095;Laerm;20450;49.074;9.158;2023-05-07T04:02:17;43.51;41.96;46.71;;
61095;Laerm;20450;49.074;9.158;2023-05-07T04:04:45;43.55;41.68;46.84;;
61095;Laerm;20450;49.074;9.158;2023-05-07T04:07:12;43.60;41.75;52.67;;
61095;Laerm;20450;49.074;9.158;2023-05-07T04:12:27;43.45;41.68;46.02;;
61095;Laerm;20450;49.074;9.158;2023-05-07T04:14:54;43.57;42.16;47.84;;
61095;Laerm;20450;49.074;9.158;2023-05-07T04:17:23;43.49;41.89;52.91;;
61095;Laerm;20450;49.074;9.158;2023-05-07T04:19:50;43.63;42.09;45.86;;
61095;Laerm;20450;49.074;9.158;2023-05-07T04:22:18;44.01;41.96;52.16;;
61095;Laerm;20450;49.074;9.158;2023-05-07T04:24:45;43.90;42.35;53.74;;
61095;Laerm;20450;49.074;9.158;2023-05-07T04:27:12;43.98;42.22;54.73;;
61095;Laerm;20450;49.074;9.158;2023-05-07T04:29:41;44.07;42.35;53.90;;
61095;Laerm;20450;49.074;9.158;2023-05-07T04:32:11;43.68;42.22;47.98;;
61095;Laerm;20450;49.074;9.158;2023-05-07T04:34:39;43.61;42.16;45.36;;
61095;Laerm;20450;49.074;9.158;2023-05-07T04:37:06;43.59;42.16;44.73;;
61095;Laerm;20450;49.074;9.158;2023-05-07T04:39:33;43.59;42.09;47.54;;
61095;Laerm;20450;49.074;9.158;2023-05-07T04:42:00;43.67;42.22;48.99;;
61095;Laerm;20450;49.074;9.158;2023-05-07T04:44:27;44.26;42.29;51.33;;
61095;Laerm;20450;49.074;9.158;2023-05-07T04:46:56;43.87;41.89;51.10;;
61095;Laerm;20450;49.074;9.158;2023-05-07T04:49:24;43.91;42.16;50.94;;
61095;Laerm;20450;49.074;9.158;2023-05-07T04:51:53;43.62;42.03;45.66;;
61095;Laerm;20450;49.074;9.158;2023-05-07T04:54:22;43.71;42.16;45.23;;
61095;Laerm;20450;49.074;9.158;2023-05-07T04:56:49;43.79;42.41;45.48;;
61095;Laerm;20450;49.074;9.158;2023-05-07T04:59:16;43.88;42.41;46.80;;
61095;Laerm;20450;49.074;9.158;2023-05-07T05:01:43;44.03;42.65;47.40;;
61095;Laerm;20450;49.074;9.158;2023-05-07T05:04:12;44.34;42.65;48.84;;
61095;Laerm;20450;49.074;9.158;2023-05-07T05:06:40;44.54;43.09;51.41;;
61095;Laerm;20450;49.074;9.158;2023-05-07T05:09:07;44.65;42.76;54.83;;
61095;Laerm;20450;49.074;9.158;2023-05-07T05:11:34;44.38;42.93;47.00;;
61095;Laerm;20450;49.074;9.158;2023-05-07T05:14:01;44.26;42.88;49.44;;
61095;Laerm;20450;49.074;9.158;2023-05-07T05:16:28;44.53;42.79;53.21;;
61095;Laerm;20450;49.074;9.158;2023-05-07T05:18:55;44.80;42.88;59.20;;
61095;Laerm;20450;49.074;9.158;2023-05-07T05:21:23;44.56;43.24;54.91;;
61095;Laerm;20450;49.074;9.158;2023-05-07T05:23:55;45.31;42.65;56.94;;
61095;Laerm;20450;49.074;9.158;2023-05-07T05:26:24;46.16;43.34;58.43;;
61095;Laerm;20450;49.074;9.158;2023-05-07T05:28:51;44.89;43.34;49.55;;
61095;Laerm;20450;49.074;9.158;2023-05-07T05:31:21;45.61;43.34;54.19;;
61095;Laerm;20450;49.074;9.158;2023-05-07T05:33:49;44.87;43.39;49.83;;
61095;Laerm;20450;49.074;9.158;2023-05-07T05:36:16;44.83;43.34;50.85;;
61095;Laerm;20450;49.074;9.158;2023-05-07T05:38:47;45.16;43.68;52.72;;
61095;Laerm;20450;49.074;9.158;2023-05-07T05:41:13;45.62;43.49;54.41;;
61095;Laerm;20450;49.074;9.158;2023-05-07T05:43:41;45.52;43.58;55.11;;
61095;Laerm;20450;49.074;9.158;2023-05-07T05:46:08;45.21;43.29;54.48;;
61095;Laerm;20450;49.074;9.158;2023-05-07T05:48:35;45.07;43.58;51.21;;
61095;Laerm;20450;49.074;9.158;2023-05-07T05:51:04;44.97;42.93;50.57;;
61095;Laerm;20450;49.074;9.158;2023-05-07T05:53:31;45.05;43.49;47.54;;
61095;Laerm;20450;49.074;9.158;2023-05-07T05:55:59;45.08;43.49;47.84;;
61095;Laerm;20450;49.074;9.158;2023-05-07T05:58:26;44.88;43.54;47.57;;
61095;Laerm;20450;49.074;9.158;2023-05-07T06:00:59;45.09;43.63;49.67;;
61095;Laerm;20450;49.074;9.158;2023-05-07T06:03:27;45.22;43.81;50.21;;
61095;Laerm;20450;49.074;9.158;2023-05-07T06:05:56;45.10;43.54;48.78;;
61095;Laerm;20450;49.074;9.158;2023-05-07T06:08:23;45.29;43.29;53.11;;
61095;Laerm;20450;49.074;9.158;2023-05-07T06:10:51;45.88;43.77;57.23;;
61095;Laerm;20450;49.074;9.158;2023-05-07T06:13:19;45.33;43.29;53.42;;
61095;Laerm;20450;49.074;9.158;2023-05-07T06:15:47;45.59;43.63;53.74;;
61095;Laerm;20450;49.074;9.158;2023-05-07T06:18:14;45.17;43.49;50.56;;
61095;Laerm;20450;49.074;9.158;2023-05-07T06:20:41;45.31;43.34;53.75;;
61095;Laerm;20450;49.074;9.158;2023-05-07T06:23:14;45.28;43.63;53.78;;
61095;Laerm;20450;49.074;9.158;2023-05-07T06:25:48;45.02;43.49;52.94;;
61095;Laerm;20450;49.074;9.158;2023-05-07T06:28:15;45.06;43.49;53.06;;
61095;Laerm;20450;49.074;9.158;2023-05-07T06:30:44;45.25;43.39;50.02;;
61095;Laerm;20450;49.074;9.158;2023-05-07T06:33:12;45.37;43.09;52.09;;
61095;Laerm;20450;49.074;9.158;2023-05-07T06:35:39;46.22;43.99;56.32;;
61095;Laerm;20450;49.074;9.158;2023-05-07T06:38:06;46.18;44.03;56.09;;
61095;Laerm;20450;49.074;9.158;2023-05-07T06:40:33;45.92;44.34;50.38;;
61095;Laerm;20450;49.074;9.158;2023-05-07T06:43:00;45.89;43.94;54.37;;
61095;Laerm;20450;49.074;9.158;2023-05-07T06:45:35;45.53;43.68;54.32;;
61095;Laerm;20450;49.074;9.158;2023-05-07T06:48:05;45.59;43.49;52.79;;
61095;Laerm;20450;49.074;9.158;2023-05-07T06:50:41;45.28;43.77;51.37;;
61095;Laerm;20450;49.074;9.158;2023-05-07T06:53:08;45.61;44.15;50.82;;
61095;Laerm;20450;49.074;9.158;2023-05-07T06:55:35;46.57;44.31;55.93;;
61095;Laerm;20450;49.074;9.158;2023-05-07T06:58:02;45.91;44.03;50.64;;
61095;Laerm;20450;49.074;9.158;2023-05-07T07:00:29;46.29;44.19;55.38;;
61095;Laerm;20450;49.074;9.158;2023-05-07T07:02:57;46.45;43.86;57.46;;
61095;Laerm;20450;49.074;9.158;2023-05-07T07:05:28;46.57;44.39;54.14;;
61095;Laerm;20450;49.074;9.158;2023-05-07T07:07:56;46.65;44.03;57.00;;
61095;Laerm;20450;49.074;9.158;2023-05-07T07:10:23;46.97;44.07;63.83;;
61095;Laerm;20450;49.074;9.158;2023-05-07T07:12:51;47.12;44.43;55.67;;
61095;Laerm;20450;49.074;9.158;2023-05-07T07:15:19;44.87;38.81;55.53;;
61095;Laerm;20450;49.074;9.158;2023-05-07T07:17:48;43.23;38.81;55.80;;
61095;Laerm;20450;49.074;9.158;2023-05-07T07:20:15;42.08;39.21;55.59;;
61095;Laerm;20450;49.074;9.158;2023-05-07T07:22:45;41.71;38.95;55.36;;
61095;Laerm;20450;49.074;9.158;2023-05-07T07:25:14;42.29;38.67;53.93;;
61095;Laerm;20450;49.074;9.158;2023-05-07T07:27:41;43.83;39.46;55.76;;
61095;Laerm;20450;49.074;9.158;2023-05-07T07:30:09;43.81;39.21;54.42;;
61095;Laerm;20450;49.074;9.158;2023-05-07T07:32:39;43.84;39.58;56.94;;
61095;Laerm;20450;49.074;9.158;2023-05-07T07:35:08;43.00;39.34;54.30;;
61095;Laerm;20450;49.074;9.158;2023-05-07T07:37:36;42.16;39.34;58.38;;
61095;Laerm;20450;49.074;9.158;2023-05-07T07:40:06;41.63;39.08;50.25;;
61095;Laerm;20450;49.074;9.158;2023-05-07T07:42:35;42.04;39.70;54.45;;
61095;Laerm;20450;49.074;9.158;2023-05-07T07:45:02;41.43;39.34;47.42;;
61095;Laerm;20450;49.074;9.158;2023-05-07T07:47:32;41.74;39.46;47.98;;
61095;Laerm;20450;49.074;9.158;2023-05-07T07:49:59;42.01;39.46;54.01;;
61095;Laerm;20450;49.074;9.158;2023-05-07T07:52:27;42.28;39.46;56.91;;
61095;Laerm;20450;49.074;9.158;2023-05-07T07:54:54;42.33;39.89;48.98;;
61095;Laerm;20450;49.074;9.158;2023-05-07T07:57:23;43.58;40.71;67.88;;
61095;Laerm;20450;49.074;9.158;2023-05-07T07:59:50;42.75;40.13;53.92;;
61095;Laerm;20450;49.074;9.158;2023-05-07T08:02:18;43.13;39.81;54.26;;
61095;Laerm;20450;49.074;9.158;2023-05-07T08:04:48;43.00;39.92;53.68;;
61095;Laerm;20450;49.074;9.158;2023-05-07T08:07:16;42.40;39.81;46.84;;
61095;Laerm;20450;49.074;9.158;2023-05-07T08:09:45;42.44;40.33;52.89;;
61095;Laerm;20450;49.074;9.158;2023-05-07T08:12:13;42.71;40.23;52.31;;
61095;Laerm;20450;49.074;9.158;2023-05-07T08:14:42;42.68;40.03;53.57;;
61095;Laerm;20450;49.074;9.158;2023-05-07T08:17:10;43.07;39.70;54.69;;
61095;Laerm;20450;49.074;9.158;2023-05-07T08:19:37;42.56;40.03;50.09;;
61095;Laerm;20450;49.074;9.158;2023-05-07T08:22:07;43.12;39.46;56.42;;
61095;Laerm;20450;49.074;9.158;2023-05-07T08:24:34;44.20;39.92;61.37;;
61095;Laerm;20450;49.074;9.158;2023-05-07T08:27:01;42.20;39.81;48.99;;
61095;Laerm;20450;49.074;9.158;2023-05-07T08:29:28;42.93;39.58;51.12;;
61095;Laerm;20450;49.074;9.158;2023-05-07T08:31:56;43.12;39.92;63.56;;
61095;Laerm;20450;49.074;9.158;2023-05-07T08:34:23;42.88;39.92;56.50;;
61095;Laerm;20450;49.074;9.158;2023-05-07T08:36:53;43.64;39.70;55.71;;
61095;Laerm;20450;49.074;9.158;2023-05-07T08:39:22;43.60;39.92;56.41;;
61095;Laerm;20450;49.074;9.158;2023-05-07T08:41:55;43.92;40.33;55.57;;
61095;Laerm;20450;49.074;9.158;2023-05-07T08:44:26;43.12;39.34;55.33;;
61095;Laerm;20450;49.074;9.158;2023-05-07T08:46:59;42.71;39.81;52.43;;
61095;Laerm;20450;49.074;9.158;2023-05-07T08:49:29;42.94;39.89;48.85;;
61095;Laerm;20450;49.074;9.158;2023-05-07T08:51:56;42.36;39.58;59.45;;
61095;Laerm;20450;49.074;9.158;2023-05-07T08:54:25;42.49;39.92;49.57;;
61095;Laerm;20450;49.074;9.158;2023-05-07T08:56:53;42.65;39.21;48.84;;
61095;Laerm;20450;49.074;9.158;2023-05-07T08:59:20;42.70;40.23;55.63;;
61095;Laerm;20450;49.074;9.158;2023-05-07T09:01:47;44.76;40.03;62.62;;
61095;Laerm;20450;49.074;9.158;2023-05-07T09:04:16;43.39;40.43;51.96;;
61095;Laerm;20450;49.074;9.158;2023-05-07T09:06:45;42.67;39.81;50.04;;
61095;Laerm;20450;49.074;9.158;2023-05-07T09:09:17;42.83;39.46;52.95;;
61095;Laerm;20450;49.074;9.158;2023-05-07T09:11:44;44.23;39.81;58.24;;
61095;Laerm;20450;49.074;9.158;2023-05-07T09:14:13;42.79;40.18;54.43;;
61095;Laerm;20450;49.074;9.158;2023-05-07T09:16:42;44.24;39.34;62.46;;
61095;Laerm;20450;49.074;9.158;2023-05-07T09:19:09;43.31;40.89;51.95;;
61095;Laerm;20450;49.074;9.158;2023-05-07T09:21:44;42.37;39.81;48.36;;
61095;Laerm;20450;49.074;9.158;2023-05-07T09:24:11;43.45;39.70;53.93;;
61095;Laerm;20450;49.074;9.158;2023-05-07T09:26:42;43.12;40.43;50.63;;
61095;Laerm;20450;49.074;9.158;2023-05-07T09:29:12;43.59;40.53;53.03;;
61095;Laerm;20450;49.074;9.158;2023-05-07T09:31:39;42.52;39.58;52.38;;
61095;Laerm;20450;49.074;9.158;2023-05-07T09:34:09;43.50;41.22;51.40;;
61095;Laerm;20450;49.074;9.158;2023-05-07T09:36:40;43.83;40.80;51.85;;
61095;Laerm;20450;49.074;9.158;2023-05-07T09:39:09;43.50;39.70;58.04;;
61095;Laerm;20450;49.074;9.158;2023-05-07T09:41:44;43.56;40.33;54.23;;
61095;Laerm;20450;49.074;9.158;2023-05-07T09:44:27;42.83;40.13;51.48;;
61095;Laerm;20450;49.074;9.158;2023-05-07T09:46:56;42.50;39.81;48.39;;
61095;Laerm;20450;49.074;9.158;2023-05-07T09:49:35;43.10;39.81;59.91;;
61095;Laerm;20450;49.074;9.158;2023-05-07T09:52:06;44.12;40.33;54.46;;
61095;Laerm;20450;49.074;9.158;2023-05-07T09:54:37;43.96;39.46;56.21;;
61095;Laerm;20450;49.074;9.158;2023-05-07T09:57:07;44.42;40.13;59.42;;
61095;Laerm;20450;49.074;9.158;2023-05-07T09:59:37;42.77;39.81;55.88;;
61095;Laerm;20450;49.074;9.158;2023-05-07T10:02:09;43.43;40.80;51.45;;
61095;Laerm;20450;49.074;9.158;2023-05-07T10:04:46;43.20;40.62;50.82;;
61095;Laerm;20450;49.074;9.158;2023-05-07T10:07:16;42.57;39.70;50.32;;
61095;Laerm;20450;49.074;9.158;2023-05-07T10:09:46;42.71;39.81;52.09;;
61095;Laerm;20450;49.074;9.158;2023-05-07T10:12:26;42.85;40.43;50.05;;
61095;Laerm;20450;49.074;9.158;2023-05-07T10:15:22;42.70;40.13;48.90;;
61095;Laerm;20450;49.074;9.158;2023-05-07T10:17:57;42.75;40.13;53.40;;
61095;Laerm;20450;49.074;9.158;2023-05-07T10:20:36;42.24;39.81;50.57;;
61095;Laerm;20450;49.074;9.158;2023-05-07T10:23:08;42.26;39.81;49.78;;
61095;Laerm;20450;49.074;9.158;2023-05-07T10:25:43;42.16;39.70;49.25;;
61095;Laerm;20450;49.074;9.158;2023-05-07T10:28:19;42.41;40.03;56.14;;
61095;Laerm;20450;49.074;9.158;2023-05-07T10:31:07;43.97;41.46;50.72;;
61095;Laerm;20450;49.074;9.158;2023-05-07T10:33:42;43.78;40.23;52.06;;
61095;Laerm;20450;49.074;9.158;2023-05-07T10:36:13;48.10;39.58;68.49;;
61095;Laerm;20450;49.074;9.158;2023-05-07T10:38:40;43.16;40.13;50.91;;
61095;Laerm;20450;49.074;9.158;2023-05-07T10:41:09;42.78;39.70;50.92;;
61095;Laerm;20450;49.074;9.158;2023-05-07T10:43:42;42.93;39.34;51.32;;
61095;Laerm;20450;49.074;9.158;2023-05-07T10:46:20;42.91;40.23;51.99;;
61095;Laerm;20450;49.074;9.158;2023-05-07T10:49:10;42.85;40.13;55.39;;
61095;Laerm;20450;49.074;9.158;2023-05-07T10:51:43;44.19;40.43;60.04;;
61095;Laerm;20450;49.074;9.158;2023-05-07T10:54:22;44.55;40.98;52.47;;
61095;Laerm;20450;49.074;9.158;2023-05-07T10:57:35;44.49;40.53;58.09;;
61095;Laerm;20450;49.074;9.158;2023-05-07T11:00:41;42.80;39.81;50.33;;
61095;Laerm;20450;49.074;9.158;2023-05-07T11:03:13;43.07;39.58;54.04;;
61095;Laerm;20450;49.074;9.158;2023-05-07T11:06:13;43.03;39.81;60.92;;
61095;Laerm;20450;49.074;9.158;2023-05-07T11:08:56;43.05;39.58;61.94;;
61095;Laerm;20450;49.074;9.158;2023-05-07T11:11:46;43.38;40.98;52.80;;
61095;Laerm;20450;49.074;9.158;2023-05-07T11:14:46;43.51;40.13;55.73;;
61095;Laerm;20450;49.074;9.158;2023-05-07T11:17:30;43.15;39.92;51.30;;
61095;Laerm;20450;49.074;9.158;2023-05-07T11:20:04;47.88;40.13;64.02;;
61095;Laerm;20450;49.074;9.158;2023-05-07T11:22:43;43.67;40.23;52.07;;
61095;Laerm;20450;49.074;9.158;2023-05-07T11:25:25;43.46;39.70;51.71;;
61095;Laerm;20450;49.074;9.158;2023-05-07T11:28:05;45.00;40.53;66.25;;
61095;Laerm;20450;49.074;9.158;2023-05-07T11:30:35;42.78;39.46;49.18;;
61095;Laerm;20450;49.074;9.158;2023-05-07T11:33:06;43.13;40.33;51.89;;
61095;Laerm;20450;49.074;9.158;2023-05-07T11:35:34;43.55;39.92;55.23;;
61095;Laerm;20450;49.074;9.158;2023-05-07T11:38:04;42.77;40.03;47.63;;
61095;Laerm;20450;49.074;9.158;2023-05-07T11:40:34;44.12;39.70;61.00;;
61095;Laerm;20450;49.074;9.158;2023-05-07T11:43:10;43.14;40.43;54.69;;
61095;Laerm;20450;49.074;9.158;2023-05-07T11:45:39;43.68;40.23;60.11;;
61095;Laerm;20450;49.074;9.158;2023-05-07T11:48:06;44.50;39.92;62.41;;
61095;Laerm;20450;49.074;9.158;2023-05-07T11:50:33;42.94;40.03;51.24;;
61095;Laerm;20450;49.074;9.158;2023-05-07T11:53:25;43.27;40.13;57.71;;
61095;Laerm;20450;49.074;9.158;2023-05-07T11:55:52;43.87;39.70;54.01;;
61095;Laerm;20450;49.074;9.158;2023-05-07T11:58:22;43.87;40.13;55.76;;
61095;Laerm;20450;49.074;9.158;2023-05-07T12:00:53;42.75;40.43;47.26;;
61095;Laerm;20450;49.074;9.158;2023-05-07T12:03:24;42.70;40.03;53.70;;
61095;Laerm;20450;49.074;9.158;2023-05-07T12:05:53;42.44;39.92;54.96;;
61095;Laerm;20450;49.074;9.158;2023-05-07T12:08:21;43.47;39.46;58.54;;
61095;Laerm;20450;49.074;9.158;2023-05-07T12:10:50;49.54;40.33;70.36;;
61095;Laerm;20450;49.074;9.158;2023-05-07T12:13:17;44.49;40.43;55.17;;
61095;Laerm;20450;49.074;9.158;2023-05-07T12:19:30;42.95;40.03;54.48;;
61095;Laerm;20450;49.074;9.158;2023-05-07T12:21:58;43.17;40.13;50.11;;
61095;Laerm;20450;49.074;9.158;2023-05-07T12:24:25;43.71;40.53;50.15;;
61095;Laerm;20450;49.074;9.158;2023-05-07T12:26:53;43.14;40.33;62.33;;
61095;Laerm;20450;49.074;9.158;2023-05-07T12:29:21;43.85;40.23;55.84;;
61095;Laerm;20450;49.074;9.158;2023-05-07T12:31:49;43.86;40.13;53.66;;
61095;Laerm;20450;49.074;9.158;2023-05-07T12:34:17;43.54;40.62;51.80;;
61095;Laerm;20450;49.074;9.158;2023-05-07T12:36:48;44.09;41.46;53.74;;
61095;Laerm;20450;49.074;9.158;2023-05-07T12:39:16;43.55;39.81;62.66;;
61095;Laerm;20450;49.074;9.158;2023-05-07T12:41:53;43.44;39.81;51.12;;
61095;Laerm;20450;49.074;9.158;2023-05-07T12:44:22;44.18;40.62;55.72;;
61095;Laerm;20450;49.074;9.158;2023-05-07T12:46:50;42.75;39.46;51.87;;
61095;Laerm;20450;49.074;9.158;2023-05-07T12:49:22;43.53;39.21;49.29;;
61095;Laerm;20450;49.074;9.158;2023-05-07T12:51:53;43.03;40.03;49.02;;
61095;Laerm;20450;49.074;9.158;2023-05-07T12:54:30;43.03;40.13;52.89;;
61095;Laerm;20450;49.074;9.158;2023-05-07T12:57:02;42.95;39.57;51.07;;
61095;Laerm;20450;49.074;9.158;2023-05-07T12:59:34;43.23;40.33;51.52;;
61095;Laerm;20450;49.074;9.158;2023-05-07T13:02:01;45.04;41.48;57.48;;
61095;Laerm;20450;49.074;9.158;2023-05-07T13:04:29;44.29;41.06;51.33;;
61095;Laerm;20450;49.074;9.158;2023-05-07T13:06:57;43.86;40.53;53.82;;
61095;Laerm;20450;49.074;9.158;2023-05-07T13:09:25;43.49;40.33;49.70;;
61095;Laerm;20450;49.074;9.158;2023-05-07T13:11:53;42.86;40.13;47.65;;
61095;Laerm;20450;49.074;9.158;2023-05-07T13:14:20;43.87;40.23;51.86;;
61095;Laerm;20450;49.074;9.158;2023-05-07T13:16:47;43.47;40.53;58.54;;
61095;Laerm;20450;49.074;9.158;2023-05-07T13:19:15;42.52;40.13;49.91;;
61095;Laerm;20450;49.074;9.158;2023-05-07T13:21:42;43.48;41.06;48.93;;
61095;Laerm;20450;49.074;9.158;2023-05-07T13:24:14;42.84;40.62;50.32;;
61095;Laerm;20450;49.074;9.158;2023-05-07T13:26:42;43.38;40.53;58.72;;
61095;Laerm;20450;49.074;9.158;2023-05-07T13:29:12;44.55;40.62;57.36;;
61095;Laerm;20450;49.074;9.158;2023-05-07T13:36:05;45.39;40.23;59.62;;
61095;Laerm;20450;49.074;9.158;2023-05-07T13:38:32;46.92;40.62;64.46;;
61095;Laerm;20450;49.074;9.158;2023-05-07T13:41:01;46.07;40.33;59.88;;
61095;Laerm;20450;49.074;9.158;2023-05-07T13:43:31;46.74;40.80;66.58;;
61095;Laerm;20450;49.074;9.158;2023-05-07T13:45:58;47.46;40.23;65.15;;
61095;Laerm;20450;49.074;9.158;2023-05-07T13:48:25;47.60;40.62;64.40;;
61095;Laerm;20450;49.074;9.158;2023-05-07T13:50:52;47.15;40.23;62.18;;
61095;Laerm;20450;49.074;9.158;2023-05-07T13:53:19;46.56;38.81;64.22;;
61095;Laerm;20450;49.074;9.158;2023-05-07T13:55:50;48.34;40.53;65.12;;
61095;Laerm;20450;49.074;9.158;2023-05-07T14:02:02;51.06;40.62;69.15;;
61095;Laerm;20450;49.074;9.158;2023-05-07T14:04:30;48.69;41.30;68.00;;
61095;Laerm;20450;49.074;9.158;2023-05-07T14:06:58;45.46;40.53;62.09;;
61095;Laerm;20450;49.074;9.158;2023-05-07T14:09:25;47.53;40.80;62.37;;
61095;Laerm;20450;49.074;9.158;2023-05-07T14:11:52;45.96;42.09;58.15;;
61095;Laerm;20450;49.074;9.158;2023-05-07T14:14:20;44.86;41.06;56.13;;